DLH5ER EDDM-EDDW
Flight info
| Callsign | DLH5ER |
|---|---|
| Flight time | 0h 51m |
| Altitude | 30000 |
| Route | INPUD2N/26R INPUD Y102 ALIBU DCT MASEK/N0447F290 DCT ELNAT/N0455F300 P605 NORTA Z595 NIE Z88 VERED VERED3P |
| Aircraft | A20N/M-SDE2E3FGHIJ1RWXY/LB1 |
Departure
| Time | 2026-05-04 19:06 |
|---|---|
| Airport | Munich Airport (EDDM) |
Arrival
| Time | 2026-05-04 19:58 |
|---|---|
| Airport | Bremen Airport (EDDW) |
| Time | Latitude | Longitude | Altitude | Speed | Heading |
|---|---|---|---|---|---|
| 2026-05-04 18:29 | 48.35423 | 11.80023 | 1474 ft | 0 kts | 263° |
| 2026-05-04 18:51 | 48.35424 | 11.80037 | 1474 ft | 2 kts | 263° |
| 2026-05-04 18:51 | 48.35426 | 11.80059 | 1473 ft | 2 kts | 264° |
| 2026-05-04 18:51 | 48.35428 | 11.80082 | 1473 ft | 2 kts | 263° |
| 2026-05-04 18:51 | 48.35429 | 11.80104 | 1473 ft | 2 kts | 264° |
| 2026-05-04 18:52 | 48.35428 | 11.80126 | 1473 ft | 2 kts | 286° |
| 2026-05-04 18:52 | 48.35422 | 11.80147 | 1473 ft | 2 kts | 302° |
| 2026-05-04 18:52 | 48.35413 | 11.80165 | 1473 ft | 2 kts | 319° |
| 2026-05-04 18:52 | 48.35401 | 11.80176 | 1473 ft | 0 kts | 335° |
| 2026-05-04 18:53 | 48.35395 | 11.80180 | 1474 ft | 1 kts | 339° |
| 2026-05-04 18:53 | 48.35394 | 11.80181 | 1474 ft | 0 kts | 338° |
| 2026-05-04 18:53 | 48.35395 | 11.80181 | 1473 ft | 0 kts | 338° |
| 2026-05-04 18:55 | 48.35395 | 11.80180 | 1473 ft | 0 kts | 338° |
| 2026-05-04 18:56 | 48.35408 | 11.80173 | 1473 ft | 3 kts | 340° |
| 2026-05-04 18:56 | 48.35439 | 11.80164 | 1473 ft | 5 kts | 355° |
| 2026-05-04 18:56 | 48.35489 | 11.80157 | 1473 ft | 8 kts | 354° |
| 2026-05-04 18:56 | 48.35552 | 11.80147 | 1472 ft | 10 kts | 353° |
| 2026-05-04 18:57 | 48.35626 | 11.80133 | 1472 ft | 11 kts | 348° |
| 2026-05-04 18:57 | 48.35701 | 11.80080 | 1471 ft | 12 kts | 346° |
| 2026-05-04 18:57 | 48.35791 | 11.80063 | 1470 ft | 13 kts | 353° |
| 2026-05-04 18:57 | 48.35851 | 11.79980 | 1470 ft | 13 kts | 265° |
| 2026-05-04 18:58 | 48.35840 | 11.79836 | 1471 ft | 13 kts | 264° |
| 2026-05-04 18:58 | 48.35829 | 11.79694 | 1471 ft | 13 kts | 263° |
| 2026-05-04 18:58 | 48.35827 | 11.79556 | 1472 ft | 13 kts | 295° |
| 2026-05-04 18:58 | 48.35912 | 11.79511 | 1471 ft | 14 kts | 353° |
| 2026-05-04 18:59 | 48.35986 | 11.79498 | 1471 ft | 9 kts | 353° |
| 2026-05-04 18:59 | 48.36007 | 11.79494 | 1471 ft | 0 kts | 353° |
| 2026-05-04 19:00 | 48.36015 | 11.79493 | 1471 ft | 2 kts | 353° |
| 2026-05-04 19:00 | 48.36044 | 11.79488 | 1471 ft | 5 kts | 353° |
| 2026-05-04 19:00 | 48.36098 | 11.79478 | 1470 ft | 9 kts | 353° |
| 2026-05-04 19:01 | 48.36174 | 11.79468 | 1470 ft | 12 kts | 4° |
| 2026-05-04 19:01 | 48.36221 | 11.79563 | 1469 ft | 13 kts | 83° |
| 2026-05-04 19:01 | 48.36232 | 11.79706 | 1469 ft | 14 kts | 83° |
| 2026-05-04 19:01 | 48.36244 | 11.79859 | 1468 ft | 15 kts | 84° |
| 2026-05-04 19:02 | 48.36256 | 11.80020 | 1467 ft | 16 kts | 83° |
| 2026-05-04 19:02 | 48.36269 | 11.80189 | 1466 ft | 16 kts | 84° |
| 2026-05-04 19:02 | 48.36283 | 11.80367 | 1465 ft | 17 kts | 83° |
| 2026-05-04 19:02 | 48.36297 | 11.80554 | 1464 ft | 18 kts | 84° |
| 2026-05-04 19:03 | 48.36312 | 11.80746 | 1463 ft | 18 kts | 83° |
| 2026-05-04 19:03 | 48.36328 | 11.80943 | 1461 ft | 19 kts | 84° |
| 2026-05-04 19:03 | 48.36342 | 11.81143 | 1460 ft | 19 kts | 83° |
| 2026-05-04 19:03 | 48.36358 | 11.81346 | 1459 ft | 19 kts | 83° |
| 2026-05-04 19:04 | 48.36373 | 11.81551 | 1459 ft | 19 kts | 83° |
| 2026-05-04 19:04 | 48.36389 | 11.81755 | 1458 ft | 19 kts | 84° |
| 2026-05-04 19:04 | 48.36393 | 11.81928 | 1458 ft | 12 kts | 101° |
| 2026-05-04 19:04 | 48.36441 | 11.82004 | 1458 ft | 12 kts | 357° |
| 2026-05-04 19:05 | 48.36521 | 11.81990 | 1458 ft | 11 kts | 354° |
| 2026-05-04 19:05 | 48.36605 | 11.81977 | 1458 ft | 12 kts | 354° |
| 2026-05-04 19:05 | 48.36673 | 11.81947 | 1458 ft | 4 kts | 295° |
| 2026-05-04 19:05 | 48.36671 | 11.81904 | 1458 ft | 6 kts | 263° |
| 2026-05-04 19:06 | 48.36638 | 11.81458 | 1459 ft | 82 kts | 264° |
| 2026-05-04 19:06 | 48.36546 | 11.80266 | 1464 ft | 146 kts | 264° |
| 2026-05-04 19:06 | 48.36409 | 11.78499 | 1621 ft | 185 kts | 264° |
| 2026-05-04 19:06 | 48.36289 | 11.76541 | 2252 ft | 192 kts | 267° |
| 2026-05-04 19:07 | 48.36155 | 11.74569 | 3056 ft | 193 kts | 266° |
| 2026-05-04 19:07 | 48.35989 | 11.72574 | 3721 ft | 198 kts | 265° |
| 2026-05-04 19:07 | 48.35782 | 11.70466 | 4242 ft | 212 kts | 263° |
| 2026-05-04 19:07 | 48.35666 | 11.68207 | 4727 ft | 226 kts | 284° |
| 2026-05-04 19:08 | 48.36446 | 11.66148 | 5230 ft | 239 kts | 323° |
| 2026-05-04 19:08 | 48.37954 | 11.65042 | 5782 ft | 253 kts | 348° |
| 2026-05-04 19:08 | 48.39746 | 11.64542 | 6303 ft | 271 kts | 352° |
| 2026-05-04 19:08 | 48.41632 | 11.63990 | 6803 ft | 288 kts | 345° |
| 2026-05-04 19:09 | 48.43647 | 11.62981 | 6991 ft | 318 kts | 340° |
| 2026-05-04 19:09 | 48.45821 | 11.61753 | 6971 ft | 350 kts | 340° |
| 2026-05-04 19:09 | 48.48132 | 11.60455 | 6954 ft | 361 kts | 340° |
| 2026-05-04 19:09 | 48.50516 | 11.59146 | 7427 ft | 370 kts | 340° |
| 2026-05-04 19:10 | 48.52922 | 11.57875 | 8375 ft | 371 kts | 340° |
| 2026-05-04 19:10 | 48.55384 | 11.56596 | 9256 ft | 375 kts | 340° |
| 2026-05-04 19:10 | 48.57855 | 11.55318 | 9962 ft | 380 kts | 340° |
| 2026-05-04 19:10 | 48.60351 | 11.54027 | 10726 ft | 384 kts | 340° |
| 2026-05-04 19:11 | 48.62854 | 11.52735 | 11612 ft | 384 kts | 340° |
| 2026-05-04 19:11 | 48.65379 | 11.51431 | 12395 ft | 386 kts | 339° |
| 2026-05-04 19:11 | 48.67910 | 11.50121 | 13104 ft | 391 kts | 339° |
| 2026-05-04 19:11 | 48.70480 | 11.48791 | 13806 ft | 394 kts | 339° |
| 2026-05-04 19:12 | 48.73101 | 11.47432 | 14509 ft | 398 kts | 339° |
| 2026-05-04 19:12 | 48.78359 | 11.44704 | 15859 ft | 404 kts | 339° |
| 2026-05-04 19:12 | 48.81031 | 11.43316 | 16510 ft | 408 kts | 339° |
| 2026-05-04 19:13 | 48.83701 | 11.41928 | 17128 ft | 411 kts | 339° |
| 2026-05-04 19:13 | 48.86389 | 11.40527 | 17744 ft | 414 kts | 339° |
| 2026-05-04 19:13 | 48.89138 | 11.39095 | 18363 ft | 417 kts | 339° |
| 2026-05-04 19:13 | 48.91872 | 11.37668 | 18971 ft | 420 kts | 339° |
| 2026-05-04 19:14 | 48.94620 | 11.36233 | 19545 ft | 424 kts | 339° |
| 2026-05-04 19:14 | 48.97437 | 11.34760 | 20091 ft | 428 kts | 339° |
| 2026-05-04 19:14 | 49.00264 | 11.33281 | 20635 ft | 431 kts | 338° |
| 2026-05-04 19:14 | 49.03091 | 11.31801 | 21176 ft | 434 kts | 338° |
| 2026-05-04 19:15 | 49.05939 | 11.30306 | 21693 ft | 438 kts | 338° |
| 2026-05-04 19:15 | 49.08587 | 11.28913 | 22160 ft | 441 kts | 338° |
| 2026-05-04 19:15 | 49.11523 | 11.27370 | 22674 ft | 444 kts | 338° |
| 2026-05-04 19:15 | 49.14466 | 11.25822 | 23167 ft | 448 kts | 338° |
| 2026-05-04 19:16 | 49.17383 | 11.24284 | 23654 ft | 451 kts | 338° |
| 2026-05-04 19:16 | 49.20351 | 11.22713 | 24126 ft | 454 kts | 338° |
| 2026-05-04 19:16 | 49.23327 | 11.21108 | 24605 ft | 456 kts | 337° |
| 2026-05-04 19:16 | 49.26300 | 11.19435 | 25060 ft | 459 kts | 337° |
| 2026-05-04 19:17 | 49.29322 | 11.17712 | 25561 ft | 460 kts | 337° |
| 2026-05-04 19:17 | 49.32304 | 11.16011 | 26213 ft | 457 kts | 337° |
| 2026-05-04 19:17 | 49.35235 | 11.14343 | 26869 ft | 455 kts | 337° |
| 2026-05-04 19:17 | 49.38209 | 11.12653 | 27488 ft | 453 kts | 337° |
| 2026-05-04 19:18 | 49.41122 | 11.10996 | 28051 ft | 452 kts | 337° |
| 2026-05-04 19:18 | 49.44085 | 11.09308 | 28558 ft | 451 kts | 337° |
| 2026-05-04 19:18 | 49.46992 | 11.07650 | 28964 ft | 453 kts | 337° |
| 2026-05-04 19:18 | 49.49913 | 11.05895 | 29330 ft | 454 kts | 334° |
| 2026-05-04 19:19 | 49.52817 | 11.03863 | 29678 ft | 455 kts | 330° |
| 2026-05-04 19:19 | 49.55583 | 11.01627 | 29943 ft | 456 kts | 328° |
| 2026-05-04 19:19 | 49.58325 | 10.99139 | 29958 ft | 457 kts | 326° |
| 2026-05-04 19:20 | 49.63732 | 10.94020 | 29957 ft | 457 kts | 325° |
| 2026-05-04 19:20 | 49.69101 | 10.88925 | 29960 ft | 457 kts | 325° |
| 2026-05-04 19:21 | 49.74510 | 10.83806 | 29956 ft | 457 kts | 326° |
| 2026-05-04 19:21 | 49.80177 | 10.79315 | 29957 ft | 458 kts | 331° |
| 2026-05-04 19:22 | 49.85888 | 10.75084 | 29959 ft | 457 kts | 331° |
| 2026-05-04 19:22 | 49.91588 | 10.70786 | 29957 ft | 457 kts | 330° |
| 2026-05-04 19:23 | 49.97281 | 10.66440 | 29957 ft | 457 kts | 330° |
| 2026-05-04 19:23 | 50.02975 | 10.62069 | 29957 ft | 457 kts | 330° |
| 2026-05-04 19:24 | 50.08675 | 10.57679 | 29954 ft | 457 kts | 330° |
| 2026-05-04 19:24 | 50.14366 | 10.53282 | 29955 ft | 457 kts | 330° |
| 2026-05-04 19:25 | 50.20057 | 10.48871 | 29955 ft | 457 kts | 330° |
| 2026-05-04 19:25 | 50.25737 | 10.44458 | 29955 ft | 457 kts | 330° |
| 2026-05-04 19:26 | 50.31419 | 10.40031 | 29956 ft | 457 kts | 330° |
| 2026-05-04 19:26 | 50.37060 | 10.35623 | 29957 ft | 457 kts | 330° |
| 2026-05-04 19:27 | 50.42769 | 10.31152 | 29958 ft | 457 kts | 329° |
| 2026-05-04 19:27 | 50.48445 | 10.26695 | 29960 ft | 457 kts | 329° |
| 2026-05-04 19:28 | 50.54148 | 10.22203 | 29963 ft | 457 kts | 329° |
| 2026-05-04 19:28 | 50.59830 | 10.17717 | 29964 ft | 457 kts | 329° |
| 2026-05-04 19:29 | 50.64862 | 10.13730 | 29972 ft | 457 kts | 329° |
| 2026-05-04 19:29 | 50.70542 | 10.09224 | 29977 ft | 457 kts | 329° |
| 2026-05-04 19:30 | 50.76223 | 10.04703 | 29978 ft | 457 kts | 329° |
| 2026-05-04 19:30 | 50.81871 | 10.00193 | 29976 ft | 457 kts | 329° |
| 2026-05-04 19:31 | 50.87528 | 9.95667 | 29984 ft | 457 kts | 328° |
| 2026-05-04 19:31 | 50.93167 | 9.91145 | 29987 ft | 456 kts | 328° |
| 2026-05-04 19:32 | 50.98811 | 9.86602 | 29991 ft | 456 kts | 328° |
| 2026-05-04 19:32 | 51.04481 | 9.82025 | 29986 ft | 456 kts | 328° |
| 2026-05-04 19:33 | 51.10106 | 9.77471 | 29986 ft | 456 kts | 328° |
| 2026-05-04 19:33 | 51.15884 | 9.73216 | 29980 ft | 458 kts | 332° |
| 2026-05-04 19:34 | 51.21690 | 9.69222 | 29980 ft | 457 kts | 332° |
| 2026-05-04 19:34 | 51.27534 | 9.65146 | 29984 ft | 457 kts | 332° |
| 2026-05-04 19:35 | 51.33341 | 9.61056 | 29982 ft | 457 kts | 332° |
| 2026-05-04 19:35 | 51.39138 | 9.56951 | 29987 ft | 457 kts | 332° |
| 2026-05-04 19:36 | 51.44964 | 9.52808 | 29990 ft | 457 kts | 332° |
| 2026-05-04 19:36 | 51.50744 | 9.48683 | 29981 ft | 457 kts | 332° |
| 2026-05-04 19:37 | 51.56531 | 9.44544 | 29976 ft | 457 kts | 332° |
| 2026-05-04 19:37 | 51.62325 | 9.40387 | 29972 ft | 457 kts | 332° |
| 2026-05-04 19:38 | 51.68107 | 9.36228 | 29926 ft | 458 kts | 332° |
| 2026-05-04 19:38 | 51.71040 | 9.34111 | 29215 ft | 463 kts | 331° |
| 2026-05-04 19:38 | 51.73978 | 9.31984 | 28177 ft | 467 kts | 331° |
| 2026-05-04 19:38 | 51.76929 | 9.29848 | 27273 ft | 467 kts | 332° |
| 2026-05-04 19:39 | 51.79892 | 9.27701 | 26401 ft | 467 kts | 332° |
| 2026-05-04 19:39 | 51.82844 | 9.25560 | 25536 ft | 466 kts | 332° |
| 2026-05-04 19:39 | 51.85755 | 9.23447 | 24646 ft | 465 kts | 332° |
| 2026-05-04 19:39 | 51.88686 | 9.21317 | 23911 ft | 461 kts | 333° |
| 2026-05-04 19:40 | 51.91588 | 9.19208 | 23344 ft | 454 kts | 333° |
| 2026-05-04 19:40 | 51.94465 | 9.17115 | 22758 ft | 449 kts | 333° |
| 2026-05-04 19:40 | 51.97254 | 9.15079 | 22176 ft | 444 kts | 333° |
| 2026-05-04 19:40 | 52.00063 | 9.13027 | 21581 ft | 440 kts | 333° |
| 2026-05-04 19:41 | 52.02842 | 9.10993 | 21008 ft | 435 kts | 333° |
| 2026-05-04 19:41 | 52.05573 | 9.08990 | 20442 ft | 431 kts | 333° |
| 2026-05-04 19:41 | 52.08266 | 9.07011 | 19869 ft | 427 kts | 333° |
| 2026-05-04 19:41 | 52.10950 | 9.05036 | 19291 ft | 423 kts | 333° |
| 2026-05-04 19:42 | 52.13615 | 9.03072 | 18729 ft | 419 kts | 333° |
| 2026-05-04 19:42 | 52.16267 | 9.01115 | 18132 ft | 415 kts | 334° |
| 2026-05-04 19:42 | 52.18866 | 8.99198 | 17615 ft | 411 kts | 334° |
| 2026-05-04 19:42 | 52.21449 | 8.97290 | 17057 ft | 408 kts | 334° |
| 2026-05-04 19:43 | 52.24044 | 8.95370 | 16496 ft | 404 kts | 333° |
| 2026-05-04 19:43 | 52.26579 | 8.93494 | 15959 ft | 401 kts | 333° |
| 2026-05-04 19:43 | 52.29097 | 8.91626 | 15390 ft | 398 kts | 333° |
| 2026-05-04 19:43 | 52.31267 | 8.90013 | 14894 ft | 395 kts | 334° |
| 2026-05-04 19:44 | 52.32641 | 8.88990 | 14589 ft | 394 kts | 334° |
| 2026-05-04 19:44 | 52.35078 | 8.87176 | 14054 ft | 391 kts | 334° |
| 2026-05-04 19:44 | 52.37586 | 8.85308 | 13496 ft | 388 kts | 334° |
| 2026-05-04 19:44 | 52.40017 | 8.83496 | 12986 ft | 385 kts | 334° |
| 2026-05-04 19:45 | 52.42440 | 8.81685 | 12412 ft | 382 kts | 334° |
| 2026-05-04 19:45 | 52.44847 | 8.79885 | 11872 ft | 379 kts | 334° |
| 2026-05-04 19:45 | 52.47228 | 8.78103 | 11349 ft | 376 kts | 334° |
| 2026-05-04 19:45 | 52.49568 | 8.76349 | 11013 ft | 365 kts | 334° |
| 2026-05-04 19:46 | 52.51831 | 8.74654 | 10987 ft | 346 kts | 334° |
| 2026-05-04 19:46 | 52.53959 | 8.73059 | 10982 ft | 328 kts | 334° |
| 2026-05-04 19:46 | 52.55987 | 8.71537 | 10962 ft | 311 kts | 333° |
| 2026-05-04 19:46 | 52.57899 | 8.70097 | 10789 ft | 301 kts | 333° |
| 2026-05-04 19:47 | 52.59794 | 8.68667 | 10478 ft | 297 kts | 333° |
| 2026-05-04 19:47 | 52.61660 | 8.67257 | 10175 ft | 292 kts | 333° |
| 2026-05-04 19:47 | 52.63497 | 8.65869 | 9757 ft | 292 kts | 333° |
| 2026-05-04 19:47 | 52.65351 | 8.64465 | 9343 ft | 292 kts | 333° |
| 2026-05-04 19:48 | 52.67170 | 8.63086 | 8966 ft | 290 kts | 334° |
| 2026-05-04 19:48 | 52.69002 | 8.61699 | 8612 ft | 287 kts | 334° |
| 2026-05-04 19:48 | 52.70809 | 8.60329 | 8253 ft | 285 kts | 334° |
| 2026-05-04 19:48 | 52.72588 | 8.58980 | 7908 ft | 282 kts | 334° |
| 2026-05-04 19:49 | 52.74358 | 8.57636 | 7569 ft | 280 kts | 334° |
| 2026-05-04 19:49 | 52.76114 | 8.56302 | 7231 ft | 277 kts | 334° |
| 2026-05-04 19:49 | 52.77856 | 8.54978 | 6896 ft | 275 kts | 334° |
| 2026-05-04 19:49 | 52.79590 | 8.53657 | 6563 ft | 273 kts | 334° |
| 2026-05-04 19:50 | 52.81299 | 8.52355 | 6233 ft | 271 kts | 334° |
| 2026-05-04 19:50 | 52.83004 | 8.51053 | 5903 ft | 268 kts | 335° |
| 2026-05-04 19:50 | 52.84695 | 8.49765 | 5579 ft | 269 kts | 335° |
| 2026-05-04 19:50 | 52.86404 | 8.48464 | 5259 ft | 270 kts | 335° |
| 2026-05-04 19:51 | 52.88080 | 8.47177 | 4928 ft | 269 kts | 335° |
| 2026-05-04 19:51 | 52.89772 | 8.45855 | 4601 ft | 268 kts | 335° |
| 2026-05-04 19:51 | 52.91453 | 8.44524 | 4273 ft | 266 kts | 335° |
| 2026-05-04 19:51 | 52.93115 | 8.43192 | 3941 ft | 265 kts | 335° |
| 2026-05-04 19:52 | 52.94766 | 8.41849 | 3610 ft | 263 kts | 335° |
| 2026-05-04 19:52 | 52.96400 | 8.40505 | 3280 ft | 262 kts | 335° |
| 2026-05-04 19:52 | 52.98009 | 8.39169 | 3045 ft | 260 kts | 335° |
| 2026-05-04 19:52 | 52.99696 | 8.38184 | 2976 ft | 257 kts | 356° |
| 2026-05-04 19:53 | 53.01443 | 8.38590 | 2979 ft | 255 kts | 25° |
| 2026-05-04 19:53 | 53.02839 | 8.40365 | 2978 ft | 254 kts | 54° |
| 2026-05-04 19:53 | 53.03612 | 8.42898 | 2975 ft | 241 kts | 74° |
| 2026-05-04 19:53 | 53.03902 | 8.45535 | 2974 ft | 226 kts | 84° |
| 2026-05-04 19:54 | 53.04034 | 8.48144 | 2985 ft | 224 kts | 86° |
| 2026-05-04 19:54 | 53.04109 | 8.50678 | 2961 ft | 216 kts | 87° |
| 2026-05-04 19:54 | 53.04157 | 8.53111 | 2854 ft | 206 kts | 88° |
| 2026-05-04 19:54 | 53.04199 | 8.55468 | 2609 ft | 205 kts | 87° |
| 2026-05-04 19:55 | 53.04242 | 8.57806 | 2333 ft | 200 kts | 87° |
| 2026-05-04 19:55 | 53.04285 | 8.60038 | 2140 ft | 182 kts | 86° |
| 2026-05-04 19:55 | 53.04324 | 8.62027 | 1902 ft | 167 kts | 86° |
| 2026-05-04 19:55 | 53.04362 | 8.63871 | 1633 ft | 154 kts | 86° |
| 2026-05-04 19:56 | 53.04397 | 8.65575 | 1396 ft | 141 kts | 86° |
| 2026-05-04 19:56 | 53.04424 | 8.67190 | 1211 ft | 137 kts | 86° |
| 2026-05-04 19:56 | 53.04449 | 8.68741 | 1060 ft | 136 kts | 86° |
| 2026-05-04 19:56 | 53.04492 | 8.70313 | 889 ft | 135 kts | 84° |
| 2026-05-04 19:57 | 53.04543 | 8.71864 | 695 ft | 135 kts | 85° |
| 2026-05-04 19:57 | 53.04561 | 8.73428 | 513 ft | 134 kts | 86° |
| 2026-05-04 19:57 | 53.04595 | 8.74945 | 344 ft | 133 kts | 85° |
| 2026-05-04 19:57 | 53.04635 | 8.76477 | 167 ft | 133 kts | 85° |
| 2026-05-04 19:58 | 53.04668 | 8.78000 | 24 ft | 127 kts | 85° |
| 2026-05-04 19:58 | 53.04695 | 8.79083 | 23 ft | 71 kts | 88° |
| 2026-05-04 19:58 | 53.04710 | 8.79717 | 23 ft | 33 kts | 89° |
| 2026-05-04 19:58 | 53.04740 | 8.79954 | 23 ft | 16 kts | 36° |
| 2026-05-04 19:59 | 53.04829 | 8.79964 | 23 ft | 9 kts | 339° |
| 2026-05-04 19:59 | 53.04872 | 8.79884 | 23 ft | 10 kts | 287° |
| 2026-05-04 19:59 | 53.04875 | 8.79785 | 23 ft | 7 kts | 269° |
| 2026-05-04 19:59 | 53.04873 | 8.79692 | 23 ft | 8 kts | 267° |
| 2026-05-04 20:00 | 53.04870 | 8.79585 | 23 ft | 10 kts | 268° |
| 2026-05-04 20:00 | 53.04868 | 8.79462 | 23 ft | 11 kts | 269° |
| 2026-05-04 20:00 | 53.04865 | 8.79326 | 23 ft | 12 kts | 267° |
| 2026-05-04 20:00 | 53.04860 | 8.79176 | 23 ft | 13 kts | 268° |
| 2026-05-04 20:01 | 53.04857 | 8.79017 | 23 ft | 14 kts | 268° |
| 2026-05-04 20:01 | 53.04853 | 8.78848 | 23 ft | 15 kts | 268° |
| 2026-05-04 20:01 | 53.04856 | 8.78705 | 23 ft | 10 kts | 294° |
| 2026-05-04 20:01 | 53.04921 | 8.78654 | 23 ft | 11 kts | 355° |
| 2026-05-04 20:02 | 53.04999 | 8.78623 | 23 ft | 12 kts | 316° |
| 2026-05-04 20:02 | 53.05061 | 8.78532 | 23 ft | 9 kts | 319° |
| 2026-05-04 20:02 | 53.05094 | 8.78515 | 23 ft | 5 kts | 27° |
| 2026-05-04 20:02 | 53.05123 | 8.78561 | 23 ft | 5 kts | 49° |
| 2026-05-04 20:03 | 53.05133 | 8.78581 | 23 ft | 0 kts | 49° |